Time;durP1;ratioP1;P1;durP2;ratioP2;P2;SDS_P1;SDS_P2;PMS_P1;PMS_P2;Temp;Humidity;BMP_temperature;BMP_pressure;BME280_temperature;BME280_humidity;BME280_pressure;Samples;Min_cycle;Max_cycle;Signal;HPM_P1;HPM_P2
2022/05/13 00:00:57;;;;;;;10.40;9.40;;;16.90;99.90;;;;;;4935064;29;20189;-73
2022/05/13 00:03:23;;;;;;;10.93;7.60;;;16.90;99.90;;;;;;4935110;29;20843;-72
2022/05/13 00:05:52;;;;;;;11.97;8.93;;;16.90;99.90;;;;;;4935499;29;20193;-73
2022/05/13 00:08:18;;;;;;;13.37;9.17;;;16.90;99.90;;;;;;4934903;29;20207;-73
2022/05/13 00:10:43;;;;;;;8.70;7.80;;;16.90;99.90;;;;;;4934786;29;20792;-73
2022/05/13 00:13:10;;;;;;;10.60;9.60;;;16.90;99.90;;;;;;4933636;29;20228;-73
2022/05/13 00:15:36;;;;;;;11.50;8.10;;;16.80;99.90;;;;;;4934964;29;20201;-73
2022/05/13 00:18:02;;;;;;;9.23;8.33;;;16.80;99.90;;;;;;4934976;29;20504;-73
2022/05/13 00:20:28;;;;;;;9.10;8.30;;;16.80;99.90;;;;;;4934619;29;20188;-72
2022/05/13 00:22:56;;;;;;;9.23;8.17;;;16.80;99.90;;;;;;4933543;29;20534;-73
2022/05/13 00:25:28;;;;;;;9.37;8.33;;;16.70;99.90;;;;;;4934738;29;20420;-73
2022/05/13 00:27:58;;;;;;;9.23;8.43;;;16.70;99.90;;;;;;4934747;29;20461;-74
2022/05/13 00:30:27;;;;;;;8.83;7.93;;;16.70;99.90;;;;;;4934481;29;20889;-71
2022/05/13 00:32:53;;;;;;;11.20;8.27;;;16.80;99.90;;;;;;4934482;29;20452;-73
2022/05/13 00:35:20;;;;;;;13.13;8.70;;;16.70;99.90;;;;;;4934516;29;20406;-73
2022/05/13 00:37:46;;;;;;;8.90;8.10;;;16.70;99.90;;;;;;4934653;29;20413;-73
2022/05/13 00:40:13;;;;;;;11.80;7.40;;;16.70;99.90;;;;;;4934468;29;20509;-73
2022/05/13 00:42:39;;;;;;;8.30;7.50;;;16.80;99.90;;;;;;4934306;29;20503;-73
2022/05/13 00:45:05;;;;;;;16.53;8.47;;;16.80;99.90;;;;;;4934442;29;20409;-73
2022/05/13 00:47:31;;;;;;;10.80;7.80;;;16.70;99.90;;;;;;4934406;29;20511;-73
2022/05/13 00:49:59;;;;;;;8.03;7.40;;;16.70;99.90;;;;;;4934574;29;20449;-73
2022/05/13 00:52:26;;;;;;;9.33;8.43;;;16.70;99.90;;;;;;4934284;29;20232;-73
2022/05/13 00:54:53;;;;;;;12.27;7.80;;;16.70;99.90;;;;;;4934470;29;20424;-73
2022/05/13 00:57:21;;;;;;;15.30;7.83;;;16.70;99.90;;;;;;4934334;29;20413;-73
2022/05/13 00:59:49;;;;;;;7.33;6.73;;;16.70;99.90;;;;;;4934310;29;20794;-73
2022/05/13 02:32:52;;;;;;;11.07;7.33;;;15.90;99.90;;;;;;5063420;23;20544;-73
2022/05/13 02:35:18;;;;;;;14.23;6.97;;;15.90;99.90;;;;;;4917055;29;20630;-73
2022/05/13 02:37:43;;;;;;;14.43;7.07;;;15.80;99.90;;;;;;4917164;29;20196;-72
2022/05/13 02:40:10;;;;;;;11.50;7.13;;;15.70;99.90;;;;;;4917846;29;20791;-72
2022/05/13 02:42:36;;;;;;;6.70;5.80;;;15.70;99.90;;;;;;4917395;29;20678;-73
2022/05/13 02:45:02;;;;;;;7.77;6.83;;;15.70;99.90;;;;;;4917658;29;20420;-73
2022/05/13 02:47:27;;;;;;;8.03;7.33;;;15.70;99.90;;;;;;4917449;29;20284;-73
2022/05/13 02:52:37;;;;;;;10.90;8.00;;;15.70;99.90;;;;;;4917413;29;20228;-73
2022/05/13 02:55:04;;;;;;;10.30;8.00;;;15.60;99.90;;;;;;4917568;29;20419;-74
2022/05/13 02:57:29;;;;;;;11.03;9.40;;;15.60;99.90;;;;;;4917414;29;20178;-73
2022/05/13 02:59:55;;;;;;;12.63;7.50;;;15.60;99.90;;;;;;4917507;29;20413;-74
2022/05/13 03:02:21;;;;;;;10.23;7.30;;;15.60;99.90;;;;;;4917493;29;20190;-73
2022/05/13 03:04:47;;;;;;;14.77;7.57;;;15.50;99.90;;;;;;4917572;29;20180;-73
2022/05/13 03:07:12;;;;;;;7.70;6.63;;;15.50;99.90;;;;;;4917259;29;20847;-73
2022/05/13 03:09:38;;;;;;;16.60;8.40;;;15.50;99.90;;;;;;4917217;29;20608;-73
2022/05/13 03:12:04;;;;;;;10.70;7.63;;;15.50;99.90;;;;;;4917084;29;20205;-73
2022/05/13 03:14:30;;;;;;;10.03;7.40;;;15.60;99.90;;;;;;4917178;29;20178;-73
2022/05/13 03:16:56;;;;;;;9.50;7.20;;;15.60;99.90;;;;;;4917427;29;20426;-74
2022/05/13 03:19:21;;;;;;;13.90;7.70;;;15.50;99.90;;;;;;4917170;29;20422;-73
2022/05/13 03:21:47;;;;;;;15.13;7.00;;;15.50;99.90;;;;;;4917765;29;20722;-73
2022/05/13 03:24:12;;;;;;;18.30;6.70;;;15.50;99.90;;;;;;4916977;29;20192;-73
2022/05/13 03:26:38;;;;;;;9.37;7.03;;;15.50;99.90;;;;;;4917026;29;20694;-73
2022/05/13 03:29:04;;;;;;;12.73;7.60;;;15.50;99.90;;;;;;4916911;29;20190;-73
2022/05/13 03:31:32;;;;;;;16.53;8.17;;;15.50;99.90;;;;;;4916564;29;20248;-73
2022/05/13 03:33:58;;;;;;;12.43;8.50;;;15.50;99.90;;;;;;4916836;29;20834;-73
2022/05/13 03:36:23;;;;;;;9.27;7.23;;;15.50;99.90;;;;;;4916697;29;20895;-73
2022/05/13 03:38:49;;;;;;;10.93;6.73;;;15.50;99.90;;;;;;4916794;29;20410;-73
2022/05/13 03:41:15;;;;;;;14.43;7.20;;;15.50;99.90;;;;;;4915853;29;20441;-72
2022/05/13 03:43:41;;;;;;;11.20;7.00;;;15.50;99.90;;;;;;4916424;29;20645;-73
2022/05/13 03:46:06;;;;;;;8.13;7.27;;;15.50;99.90;;;;;;4915198;29;20257;-73
2022/05/13 03:48:32;;;;;;;11.40;6.83;;;15.50;99.90;;;;;;4916116;29;20709;-72
2022/05/13 03:50:58;;;;;;;9.10;7.07;;;15.50;99.90;;;;;;4916445;29;20221;-71
2022/05/13 03:53:24;;;;;;;10.83;7.90;;;15.50;99.90;;;;;;4916305;29;20188;-72
2022/05/13 03:55:49;;;;;;;13.03;7.90;;;15.50;99.90;;;;;;4916311;29;20177;-73
2022/05/13 03:58:15;;;;;;;11.23;8.63;;;15.50;99.90;;;;;;4916304;29;20662;-73
2022/05/13 04:00:41;;;;;;;9.63;7.83;;;15.50;99.90;;;;;;4916008;29;20184;-72
2022/05/13 04:03:07;;;;;;;8.00;7.30;;;15.50;99.90;;;;;;4916383;29;20572;-74
2022/05/13 04:11:01;;;;;;;11.43;7.50;;;15.50;99.90;;;;;;4915946;29;20813;-71
2022/05/13 04:16:11;;;;;;;10.90;7.73;;;15.50;99.90;;;;;;4915822;29;20236;-71
2022/05/13 04:18:42;;;;;;;10.97;8.43;;;15.50;99.90;;;;;;4915998;29;20509;-71
2022/05/13 04:21:14;;;;;;;9.40;8.60;;;15.60;99.90;;;;;;4915608;29;20691;-72
2022/05/13 04:23:44;;;;;;;12.13;7.60;;;15.60;99.90;;;;;;4915952;29;20497;-71
2022/05/13 04:26:13;;;;;;;10.10;7.70;;;15.60;99.90;;;;;;4915641;29;20414;-71
2022/05/13 04:28:44;;;;;;;8.97;8.13;;;15.60;99.90;;;;;;4914419;29;20472;-71
2022/05/13 04:31:11;;;;;;;13.13;8.53;;;15.60;99.90;;;;;;4915349;29;20449;-71
2022/05/13 04:33:38;;;;;;;16.30;8.40;;;15.60;99.90;;;;;;4915686;29;20831;-71
2022/05/13 04:36:04;;;;;;;10.70;8.20;;;15.70;99.90;;;;;;4915744;29;20519;-71
2022/05/13 04:38:30;;;;;;;12.73;8.90;;;15.70;99.90;;;;;;4916002;29;20405;-71
2022/05/13 04:40:55;;;;;;;17.23;8.30;;;15.70;99.90;;;;;;4915460;29;20533;-71
2022/05/13 04:43:21;;;;;;;10.33;8.30;;;15.70;99.90;;;;;;4915323;29;20190;-71
2022/05/13 04:45:46;;;;;;;8.77;7.97;;;15.80;99.90;;;;;;4915566;29;20531;-72
2022/05/13 04:48:16;;;;;;;10.63;7.87;;;15.80;99.90;;;;;;4915214;29;20221;-72
2022/05/13 04:50:46;;;;;;;9.60;7.83;;;15.80;99.90;;;;;;4915277;29;20205;-71
2022/05/13 04:53:13;;;;;;;9.63;7.93;;;15.90;99.90;;;;;;4915370;29;20424;-71
2022/05/13 04:55:40;;;;;;;11.53;9.33;;;15.90;99.90;;;;;;4915366;29;20418;-71
2022/05/13 04:58:06;;;;;;;12.13;8.13;;;15.90;99.90;;;;;;4914098;29;20466;-71
2022/05/13 05:00:32;;;;;;;9.77;8.20;;;15.90;99.90;;;;;;4914213;29;20426;-69
2022/05/13 05:02:58;;;;;;;10.07;7.40;;;15.90;99.90;;;;;;4915248;29;20209;-71
2022/05/13 05:05:23;;;;;;;8.53;7.77;;;15.90;99.90;;;;;;4915077;29;20182;-71
2022/05/13 05:07:49;;;;;;;8.30;6.17;;;15.90;99.90;;;;;;4915225;29;20221;-71
2022/05/13 05:10:14;;;;;;;7.33;6.57;;;15.90;99.90;;;;;;4914736;29;20182;-71
2022/05/13 05:12:41;;;;;;;10.73;7.90;;;15.90;99.90;;;;;;4914968;29;20202;-71
2022/05/13 05:15:08;;;;;;;9.07;7.70;;;15.80;99.90;;;;;;4915050;29;20247;-71
2022/05/13 05:17:34;;;;;;;8.87;7.37;;;15.80;99.90;;;;;;4914974;29;20810;-71
2022/05/13 05:19:59;;;;;;;7.33;6.73;;;15.80;99.90;;;;;;4916264;29;20422;-71
2022/05/13 05:22:25;;;;;;;9.40;7.30;;;15.90;99.90;;;;;;4913920;29;20304;-69
2022/05/13 05:24:51;;;;;;;12.00;6.77;;;15.90;99.90;;;;;;4888099;29;20723;-71
2022/05/13 05:27:17;;;;;;;11.10;6.73;;;15.90;99.90;;;;;;4884212;29;20203;-72
2022/05/13 05:29:44;;;;;;;6.70;6.20;;;16.00;99.90;;;;;;4888446;29;20179;-70
2022/05/13 05:32:10;;;;;;;11.30;6.53;;;16.00;99.90;;;;;;4895336;29;20470;-71
2022/05/13 05:34:36;;;;;;;6.90;6.20;;;16.10;99.90;;;;;;4895829;29;20930;-71
2022/05/13 05:37:01;;;;;;;14.60;5.90;;;16.10;99.90;;;;;;4896132;29;20178;-71
2022/05/13 05:39:27;;;;;;;6.67;6.00;;;16.20;99.90;;;;;;4895819;29;20198;-71
2022/05/13 05:41:52;;;;;;;8.63;6.27;;;16.30;99.90;;;;;;4894654;29;20203;-71
2022/05/13 05:44:18;;;;;;;9.27;6.33;;;16.30;99.90;;;;;;4895875;29;20187;-71
2022/05/13 05:46:44;;;;;;;8.37;5.43;;;16.40;99.90;;;;;;4895947;29;20203;-70
2022/05/13 05:49:10;;;;;;;6.97;6.37;;;16.40;99.90;;;;;;4895908;29;20554;-71
2022/05/13 05:51:36;;;;;;;6.30;5.80;;;16.40;99.90;;;;;;4895776;29;20619;-72
2022/05/13 05:59:30;;;;;;;8.43;6.13;;;16.40;99.90;;;;;;4896097;29;20474;-71
2022/05/13 06:01:55;;;;;;;10.13;6.30;;;16.50;99.90;;;;;;4895615;29;20439;-71
2022/05/13 06:04:21;;;;;;;6.97;5.70;;;16.50;99.90;;;;;;4895781;29;20221;-72
2022/05/13 06:06:47;;;;;;;10.50;5.30;;;16.60;99.90;;;;;;4895740;29;20199;-72
2022/05/13 06:09:12;;;;;;;12.97;6.17;;;16.60;99.90;;;;;;4895508;29;20179;-71
2022/05/13 06:11:38;;;;;;;6.30;5.57;;;16.60;99.90;;;;;;4897125;29;20723;-72
2022/05/13 06:14:05;;;;;;;11.30;5.80;;;16.60;99.90;;;;;;4899352;29;20210;-72
2022/05/13 06:16:30;;;;;;;9.43;6.90;;;16.70;99.90;;;;;;4899497;29;20187;-72
2022/05/13 06:19:00;;;;;;;10.97;7.47;;;16.70;99.90;;;;;;4899317;29;20407;-71
2022/05/13 06:21:28;;;;;;;7.63;5.17;;;16.80;99.90;;;;;;4898764;29;20574;-71
2022/05/13 06:23:54;;;;;;;7.50;5.97;;;16.90;99.90;;;;;;4898971;29;20415;-73
2022/05/13 06:26:21;;;;;;;8.23;5.13;;;16.90;99.90;;;;;;4899074;29;20471;-71
2022/05/13 06:28:46;;;;;;;8.73;5.20;;;16.90;99.90;;;;;;4899090;29;20502;-72
2022/05/13 06:31:13;;;;;;;11.57;6.67;;;16.90;99.90;;;;;;4898345;29;20597;-71
2022/05/13 06:33:38;;;;;;;7.60;5.07;;;16.90;99.90;;;;;;4898910;29;20567;-71
2022/05/13 06:36:05;;;;;;;10.23;5.70;;;17.00;99.90;;;;;;4898839;29;20434;-71
2022/05/13 06:38:30;;;;;;;8.33;5.43;;;17.10;99.90;;;;;;4898686;29;20213;-72
2022/05/13 06:40:56;;;;;;;9.17;6.13;;;17.20;99.90;;;;;;4898388;29;20451;-71
2022/05/13 06:43:22;;;;;;;15.40;6.10;;;17.30;99.90;;;;;;4898356;29;20199;-71
2022/05/13 06:45:48;;;;;;;7.87;5.30;;;17.40;99.90;;;;;;4898680;29;20191;-71
2022/05/13 06:48:14;;;;;;;13.13;5.37;;;17.50;99.90;;;;;;4898243;29;20790;-71
2022/05/13 06:50:43;;;;;;;18.73;6.23;;;17.50;99.90;;;;;;4898314;29;20183;-71
2022/05/13 06:53:09;;;;;;;9.13;4.50;;;17.50;99.90;;;;;;4898325;29;20509;-72
2022/05/13 06:55:35;;;;;;;7.07;5.33;;;17.60;99.90;;;;;;4898629;29;20450;-71
2022/05/13 06:58:01;;;;;;;5.67;4.40;;;17.60;99.90;;;;;;4898592;29;20459;-72
2022/05/13 07:00:26;;;;;;;11.17;5.00;;;17.60;99.90;;;;;;4898321;29;20234;-71
2022/05/13 07:02:52;;;;;;;7.57;4.80;;;17.50;99.90;;;;;;4898413;29;20768;-72
2022/05/13 07:05:20;;;;;;;6.90;5.10;;;17.40;99.90;;;;;;4898222;29;20242;-71
2022/05/13 07:07:46;;;;;;;8.43;4.67;;;17.40;99.90;;;;;;4897142;29;20479;-72
2022/05/13 07:10:12;;;;;;;7.13;4.87;;;17.40;99.90;;;;;;4897912;29;20462;-71
2022/05/13 07:12:38;;;;;;;12.47;4.73;;;17.50;99.90;;;;;;4898137;29;20462;-71
2022/05/13 07:15:07;;;;;;;6.00;4.50;;;17.50;99.90;;;;;;4898098;29;20415;-70
2022/05/13 07:17:32;;;;;;;7.13;4.00;;;17.60;99.90;;;;;;4898189;29;20438;-72
2022/05/13 07:19:58;;;;;;;3.93;3.60;;;17.60;99.90;;;;;;4897991;29;20423;-70
2022/05/13 07:22:24;;;;;;;7.90;4.87;;;17.70;99.90;;;;;;4898175;29;20692;-71
2022/05/13 07:24:51;;;;;;;6.97;3.33;;;17.70;99.90;;;;;;4897718;29;20190;-69
2022/05/13 07:27:17;;;;;;;5.97;3.60;;;17.70;99.90;;;;;;4897802;29;20207;-70
2022/05/13 07:29:43;;;;;;;11.30;4.47;;;17.70;99.90;;;;;;4897789;29;20826;-70
2022/05/13 07:32:09;;;;;;;7.27;4.20;;;17.70;99.90;;;;;;4897466;29;20218;-71
2022/05/13 07:34:34;;;;;;;7.60;4.63;;;17.70;99.90;;;;;;4897696;29;20233;-71
2022/05/13 07:37:00;;;;;;;7.50;3.83;;;17.80;99.90;;;;;;4897819;29;20415;-71
2022/05/13 07:42:11;;;;;;;4.73;4.20;;;17.80;99.90;;;;;;4897226;29;20827;-71
2022/05/13 07:44:37;;;;;;;6.67;3.37;;;17.80;99.90;;;;;;4897596;29;20788;-71
2022/05/13 07:47:07;;;;;;;10.77;4.53;;;17.90;99.90;;;;;;4897635;29;20493;-72
2022/05/13 07:49:34;;;;;;;5.23;2.73;;;17.90;99.90;;;;;;4897491;29;20413;-72
2022/05/13 07:52:00;;;;;;;5.77;5.20;;;18.00;99.90;;;;;;4897352;29;20955;-72
2022/05/13 07:54:26;;;;;;;6.67;3.10;;;17.90;99.90;;;;;;4896852;29;20506;-71
2022/05/13 07:56:52;;;;;;;6.20;2.87;;;18.00;99.90;;;;;;4896569;29;20472;-71
2022/05/13 07:59:18;;;;;;;8.00;3.60;;;17.90;99.90;;;;;;4896178;29;20427;-71
2022/05/13 08:01:43;;;;;;;6.53;3.50;;;17.90;99.90;;;;;;4896531;29;20286;-71
2022/05/13 08:04:11;;;;;;;5.47;4.10;;;18.10;99.90;;;;;;4896815;29;20183;-71
2022/05/13 08:06:36;;;;;;;3.43;2.40;;;18.20;99.90;;;;;;4896686;29;20568;-72
2022/05/13 08:09:02;;;;;;;7.90;2.83;;;18.20;99.90;;;;;;4897138;29;20448;-71
2022/05/13 08:11:31;;;;;;;4.50;3.30;;;18.50;99.90;;;;;;4896988;29;20568;-72
2022/05/13 08:13:57;;;;;;;15.90;3.80;;;18.50;99.90;;;;;;4896173;29;20187;-72
2022/05/13 08:16:26;;;;;;;8.30;2.80;;;18.70;99.90;;;;;;4897171;29;20422;-72
2022/05/13 08:18:53;;;;;;;5.80;2.90;;;18.90;99.90;;;;;;4897449;29;20617;-72
2022/05/13 08:21:19;;;;;;;8.93;2.80;;;19.00;99.90;;;;;;4896714;29;20526;-71
2022/05/13 08:23:45;;;;;;;12.20;2.90;;;19.00;99.90;;;;;;4897246;29;20471;-72
2022/05/13 08:26:11;;;;;;;5.90;3.20;;;19.20;99.90;;;;;;4897052;29;20415;-72
2022/05/13 08:28:38;;;;;;;5.90;2.60;;;19.10;99.90;;;;;;4897002;29;20550;-72
2022/05/13 08:31:05;;;;;;;9.43;2.63;;;19.10;99.90;;;;;;4896593;29;20952;-71
2022/05/13 08:33:31;;;;;;;6.70;2.13;;;19.20;99.90;;;;;;4896662;29;20944;-72
2022/05/13 08:35:59;;;;;;;10.43;3.40;;;19.30;99.90;;;;;;4896106;29;20422;-71
2022/05/13 08:38:30;;;;;;;11.00;2.53;;;19.40;99.90;;;;;;4896881;29;20504;-72
2022/05/13 08:41:05;;;;;;;4.43;2.40;;;19.80;99.90;;;;;;4897021;29;20431;-72
2022/05/13 08:43:56;;;;;;;5.47;2.67;;;20.10;99.90;;;;;;4896727;29;20418;-71
2022/05/13 08:46:37;;;;;;;7.03;2.73;;;20.90;99.90;;;;;;4896806;29;20403;-72
2022/05/13 08:49:23;;;;;;;16.60;3.00;;;21.30;99.90;;;;;;4896911;29;20792;-72
2022/05/13 08:54:58;;;;;;;6.17;2.43;;;21.40;99.90;;;;;;4896565;29;20410;-71
2022/05/13 08:57:31;;;;;;;3.07;2.00;;;22.10;99.90;;;;;;4897026;29;20422;-72
2022/05/13 09:00:36;;;;;;;7.90;2.60;;;22.70;99.90;;;;;;4896584;29;20514;-72
2022/05/13 09:03:20;;;;;;;7.83;2.43;;;23.50;99.90;;;;;;4896083;29;20875;-72
2022/05/13 09:06:04;;;;;;;5.03;1.97;;;23.40;99.90;;;;;;4896455;29;20477;-71
2022/05/13 09:08:30;;;;;;;12.60;2.40;;;23.60;99.90;;;;;;4896347;29;20470;-70
2022/05/13 09:11:02;;;;;;;11.23;2.30;;;24.20;99.90;;;;;;4895961;29;20447;-72
2022/05/13 09:13:43;;;;;;;4.80;1.80;;;24.20;99.90;;;;;;4896445;29;20792;-72
2022/05/13 09:16:09;;;;;;;7.53;2.20;;;24.60;99.90;;;;;;4896623;29;20415;-72
2022/05/13 09:18:50;;;;;;;6.00;1.90;;;24.10;99.90;;;;;;4896617;29;20924;-72
2022/05/13 09:21:19;;;;;;;10.00;2.83;;;23.60;99.90;;;;;;4896718;29;20442;-73
2022/05/13 09:23:45;;;;;;;5.97;2.50;;;23.00;99.90;;;;;;4896339;29;20414;-71
2022/05/13 09:26:18;;;;;;;6.67;2.20;;;23.10;99.90;;;;;;4896478;29;20423;-71
2022/05/13 09:29:28;;;;;;;6.87;2.30;;;23.30;99.90;;;;;;4896233;29;20473;-72
2022/05/13 09:31:57;;;;;;;6.10;2.10;;;23.20;99.90;;;;;;4896030;29;20469;-73
2022/05/13 09:34:55;;;;;;;5.40;2.60;;;22.80;99.90;;;;;;4898938;29;20777;-71
2022/05/13 09:37:25;;;;;;;11.57;2.20;;;22.40;99.90;;;;;;4897564;29;20475;-70
2022/05/13 09:40:08;;;;;;;5.20;2.00;;;21.80;99.90;;;;;;4896330;29;20446;-70
2022/05/13 09:42:43;;;;;;;4.47;2.10;;;21.50;99.90;;;;;;4896220;29;20445;-71
2022/05/13 09:45:21;;;;;;;5.60;2.13;;;21.40;99.90;;;;;;4894904;29;20502;-70
2022/05/13 09:48:15;;;;;;;7.80;2.50;;;21.60;99.90;;;;;;4899385;29;20497;-70
2022/05/13 09:50:54;;;;;;;9.20;2.30;;;21.70;99.90;;;;;;4899392;29;20962;-71
2022/05/13 09:53:20;;;;;;;10.83;2.27;;;21.50;99.90;;;;;;4899952;29;20415;-71
2022/05/13 09:55:47;;;;;;;9.93;2.20;;;21.20;99.90;;;;;;4899442;29;20423;-71
2022/05/13 09:58:20;;;;;;;5.80;2.53;;;21.00;99.90;;;;;;4899681;29;20269;-73
2022/05/13 10:00:53;;;;;;;6.73;1.90;;;20.80;99.90;;;;;;4899437;29;20506;-70
2022/05/13 10:03:25;;;;;;;4.83;1.73;;;20.80;99.90;;;;;;4899419;29;20422;-70
2022/05/13 10:06:04;;;;;;;6.20;2.00;;;20.70;99.90;;;;;;4899436;29;20847;-69
2022/05/13 10:08:31;;;;;;;15.30;1.97;;;20.80;99.90;;;;;;4899448;29;20546;-70
2022/05/13 10:14:00;;;;;;;8.27;1.87;;;21.40;99.90;;;;;;4899555;29;20414;-70
2022/05/13 10:16:39;;;;;;;4.83;2.00;;;21.30;99.90;;;;;;4899098;29;20499;-69
2022/05/13 10:19:19;;;;;;;5.77;2.20;;;21.30;99.90;;;;;;4899247;29;20459;-70
2022/05/13 10:22:21;;;;;;;9.80;3.10;;;21.30;99.90;;;;;;4898788;29;20434;-70
2022/05/13 10:24:59;;;;;;;5.07;2.17;;;21.10;99.90;;;;;;4898548;29;20433;-70
2022/05/13 10:27:39;;;;;;;13.00;5.70;;;20.80;99.90;;;;;;4899179;29;20492;-70
2022/05/13 10:30:11;;;;;;;2.50;2.20;;;20.80;99.90;;;;;;4899131;29;20406;-70
2022/05/13 10:33:00;;;;;;;2.77;1.97;;;20.60;99.90;;;;;;4898455;29;20455;-71
2022/05/13 10:35:36;;;;;;;4.63;2.53;;;20.50;99.90;;;;;;4899031;29;20429;-71
2022/05/13 10:38:25;;;;;;;4.63;2.90;;;20.40;99.90;;;;;;4898933;29;20419;-70
2022/05/13 10:40:53;;;;;;;4.30;2.23;;;20.30;99.90;;;;;;4898487;29;20447;-70
2022/05/13 10:43:55;;;;;;;3.97;2.67;;;20.00;99.90;;;;;;4899225;29;20412;-71
2022/05/13 10:46:31;;;;;;;5.57;2.77;;;19.90;99.90;;;;;;4900315;29;20422;-70
2022/05/13 10:48:57;;;;;;;7.83;3.00;;;19.90;99.90;;;;;;4901220;29;20621;-71
2022/05/13 10:51:35;;;;;;;8.63;2.93;;;19.80;99.90;;;;;;4900700;29;20446;-71
2022/05/13 10:54:21;;;;;;;2.80;2.50;;;19.80;99.90;;;;;;4898909;29;20234;-67
2022/05/13 10:57:12;;;;;;;3.90;2.63;;;20.00;99.90;;;;;;4897406;29;20427;-68
2022/05/13 11:00:02;;;;;;;6.10;2.93;;;20.00;99.90;;;;;;4891559;29;20411;-70
2022/05/13 11:02:40;;;;;;;8.83;3.03;;;20.10;99.90;;;;;;4898720;29;20431;-70
2022/05/13 11:05:41;;;;;;;6.10;3.30;;;20.30;99.90;;;;;;4898403;29;21045;-70
2022/05/13 11:08:19;;;;;;;5.80;2.40;;;20.40;99.90;;;;;;4898392;29;20565;-70
2022/05/13 11:11:06;;;;;;;12.03;3.50;;;20.60;99.90;;;;;;4897926;29;21139;-69
2022/05/13 11:13:43;;;;;;;10.03;3.60;;;20.60;99.90;;;;;;4897131;29;20426;-69
2022/05/13 11:16:15;;;;;;;6.07;2.80;;;20.80;99.90;;;;;;4898085;29;20411;-69
2022/05/13 11:19:04;;;;;;;11.23;3.37;;;21.00;99.90;;;;;;4898261;29;20851;-70
2022/05/13 11:21:48;;;;;;;4.97;3.07;;;21.00;99.90;;;;;;4898758;29;20821;-70
2022/05/13 11:27:32;;;;;;;7.90;3.20;;;21.50;99.90;;;;;;4898162;29;20478;-69
2022/05/13 11:30:08;;;;;;;5.73;3.57;;;21.80;99.90;;;;;;4897616;29;20494;-71
2022/05/13 11:32:55;;;;;;;9.70;3.40;;;21.90;99.90;;;;;;4897553;29;20458;-70
2022/05/13 11:35:41;;;;;;;3.40;2.73;;;22.10;99.90;;;;;;4897636;29;20433;-69
2022/05/13 11:38:30;;;;;;;4.83;3.40;;;22.30;99.90;;;;;;4897711;29;20525;-70
2022/05/13 11:41:04;;;;;;;11.73;3.40;;;22.70;99.90;;;;;;4897164;29;20856;-70
2022/05/13 11:43:44;;;;;;;7.40;3.07;;;22.70;99.90;;;;;;4897686;29;20426;-70
2022/05/13 11:46:31;;;;;;;5.83;3.10;;;22.60;99.90;;;;;;4897589;29;20900;-70
2022/05/13 11:49:16;;;;;;;11.23;3.00;;;22.40;99.90;;;;;;4897007;29;20987;-70
2022/05/13 11:51:41;;;;;;;2.90;2.43;;;21.80;99.90;;;;;;4897275;29;20450;-70
2022/05/13 11:54:14;;;;;;;7.33;2.80;;;21.60;99.90;;;;;;4897635;29;20415;-70
2022/05/13 11:56:43;;;;;;;5.50;2.77;;;21.70;99.90;;;;;;4897450;29;20171;-70
2022/05/13 11:59:12;;;;;;;2.93;2.60;;;21.70;99.90;;;;;;4897332;29;20935;-70
2022/05/13 12:01:43;;;;;;;7.10;3.03;;;21.60;99.90;;;;;;4896852;29;20450;-69
2022/05/13 12:04:16;;;;;;;4.93;2.43;;;21.80;99.90;;;;;;4897390;29;20783;-69
2022/05/13 12:06:50;;;;;;;5.33;2.20;;;22.10;99.90;;;;;;4896919;29;20415;-70
2022/05/13 12:09:24;;;;;;;3.53;2.20;;;22.40;99.90;;;;;;4896833;29;20415;-70
2022/05/13 12:12:17;;;;;;;7.60;2.83;;;22.60;99.90;;;;;;4897375;29;20485;-71
2022/05/13 12:15:11;;;;;;;3.13;2.83;;;22.80;99.90;;;;;;4898679;29;20415;-70
2022/05/13 12:18:09;;;;;;;2.57;2.37;;;23.00;99.90;;;;;;4897963;29;20797;-70
2022/05/13 12:21:12;;;;;;;9.10;2.70;;;23.00;99.90;;;;;;4896691;29;20463;-68
2022/05/13 12:23:49;;;;;;;7.37;2.90;;;22.60;99.90;;;;;;4896879;29;20414;-70
2022/05/13 12:26:20;;;;;;;13.10;2.97;;;22.60;99.90;;;;;;4896980;29;20419;-71
2022/05/13 12:28:55;;;;;;;4.73;2.20;;;22.80;99.90;;;;;;4905422;29;20468;-71
2022/05/13 12:31:29;;;;;;;3.00;2.20;;;23.00;99.90;;;;;;4914972;29;20453;-71
2022/05/13 12:40:25;;;;;;;8.50;3.20;;;22.90;99.90;;;;;;4915242;29;20421;-71
2022/05/13 12:42:51;;;;;;;3.67;2.30;;;23.00;99.90;;;;;;4907967;29;20886;-70
2022/05/13 12:45:41;;;;;;;7.03;2.53;;;23.30;99.90;;;;;;4915498;29;20509;-71
2022/05/13 12:48:06;;;;;;;3.00;2.40;;;23.40;99.90;;;;;;4915436;29;20334;-71
2022/05/13 12:50:38;;;;;;;5.23;3.53;;;23.50;99.90;;;;;;4915019;29;20461;-69
2022/05/13 12:53:29;;;;;;;5.20;2.23;;;23.40;99.90;;;;;;4915457;29;20170;-71
2022/05/13 12:55:58;;;;;;;3.60;2.70;;;23.30;99.90;;;;;;4915463;29;20418;-72
2022/05/13 12:58:25;;;;;;;4.07;2.83;;;23.40;99.90;;;;;;4915024;29;20422;-73
2022/05/13 13:00:53;;;;;;;6.57;2.50;;;23.30;99.90;;;;;;4915156;29;20422;-71
2022/05/13 13:03:19;;;;;;;4.70;1.87;;;23.20;99.90;;;;;;4915468;29;20421;-72
2022/05/13 13:05:59;;;;;;;4.70;2.80;;;23.20;99.90;;;;;;4915192;29;20418;-72
2022/05/13 13:08:37;;;;;;;10.23;2.80;;;23.00;99.90;;;;;;4914071;29;20477;-71
2022/05/13 13:11:31;;;;;;;3.13;2.70;;;23.10;99.90;;;;;;4914853;29;20442;-71
2022/05/13 13:14:43;;;;;;;5.50;2.50;;;23.30;99.90;;;;;;4915131;29;20482;-71
2022/05/13 13:17:39;;;;;;;5.03;2.00;;;23.50;99.90;;;;;;4903653;29;20437;-71
2022/05/13 13:20:09;;;;;;;5.33;2.63;;;23.60;99.90;;;;;;4914928;29;20422;-72
2022/05/13 13:22:41;;;;;;;4.47;2.97;;;23.50;99.90;;;;;;4918130;29;20446;-70
2022/05/13 13:25:24;;;;;;;3.10;2.07;;;23.50;99.90;;;;;;4918984;29;20402;-71
2022/05/13 13:28:02;;;;;;;7.80;2.23;;;23.40;99.90;;;;;;4918775;29;20462;-71
2022/05/13 13:30:30;;;;;;;7.33;2.17;;;23.10;99.90;;;;;;4918800;29;20417;-71
2022/05/13 13:32:56;;;;;;;7.87;2.80;;;23.00;99.90;;;;;;4918463;29;21031;-71
2022/05/13 13:35:38;;;;;;;1.80;1.70;;;23.00;99.90;;;;;;4918834;29;20410;-71
2022/05/13 13:38:08;;;;;;;2.70;1.77;;;22.80;99.90;;;;;;4918746;29;20422;-70
2022/05/13 13:40:37;;;;;;;4.23;2.20;;;22.90;99.90;;;;;;4918797;29;20484;-70
2022/05/13 13:43:27;;;;;;;2.13;1.93;;;22.90;99.90;;;;;;4918642;29;20460;-72
2022/05/13 13:46:22;;;;;;;4.93;1.60;;;23.00;99.90;;;;;;4918534;29;20430;-71
2022/05/13 13:48:55;;;;;;;5.67;2.07;;;23.00;99.90;;;;;;4917766;29;20480;-71
2022/05/13 13:51:22;;;;;;;8.50;2.53;;;22.90;99.90;;;;;;4918204;29;20520;-70
2022/05/13 13:53:55;;;;;;;3.23;1.63;;;23.00;99.90;;;;;;4918510;29;20410;-72
2022/05/13 13:56:21;;;;;;;2.20;1.63;;;22.90;99.90;;;;;;4918462;29;20406;-71
2022/05/13 13:59:14;;;;;;;7.23;2.03;;;22.90;99.90;;;;;;4918398;29;20429;-71
2022/05/13 14:01:49;;;;;;;5.83;1.73;;;22.80;99.90;;;;;;4915255;29;20790;-71
2022/05/13 14:04:21;;;;;;;1.57;1.13;;;23.00;99.90;;;;;;4897736;29;20818;-72
2022/05/13 14:06:47;;;;;;;10.03;2.27;;;23.10;99.90;;;;;;4916531;29;20428;-70
2022/05/13 14:09:33;;;;;;;3.07;1.50;;;23.10;99.90;;;;;;4918270;29;20473;-71
2022/05/13 14:12:05;;;;;;;3.27;1.70;;;23.10;99.90;;;;;;4912877;29;20542;-72
2022/05/13 14:14:31;;;;;;;4.20;1.83;;;23.20;99.90;;;;;;4899258;29;20419;-71
2022/05/13 14:17:07;;;;;;;10.20;1.97;;;23.30;99.90;;;;;;4898628;29;20416;-71
2022/05/13 14:19:42;;;;;;;3.27;1.63;;;23.20;99.90;;;;;;4899031;29;20410;-71
2022/05/13 14:22:09;;;;;;;3.47;1.57;;;23.30;99.90;;;;;;4897396;29;20447;-71
2022/05/13 14:24:36;;;;;;;2.07;1.37;;;23.30;99.90;;;;;;4899162;29;20419;-71
2022/05/13 14:27:25;;;;;;;3.00;1.87;;;23.30;99.90;;;;;;4899314;29;20520;-71
2022/05/13 14:30:06;;;;;;;5.90;1.57;;;23.10;99.90;;;;;;4899117;29;20983;-71
2022/05/13 14:32:35;;;;;;;5.20;1.77;;;23.10;99.90;;;;;;4898307;29;20517;-72
2022/05/13 14:35:16;;;;;;;2.30;1.40;;;23.00;99.90;;;;;;4899063;29;20768;-71
2022/05/13 14:38:06;;;;;;;7.30;2.20;;;23.00;99.90;;;;;;4897432;29;20513;-71
2022/05/13 14:40:48;;;;;;;2.80;1.30;;;23.00;99.90;;;;;;4898689;29;20419;-71
2022/05/13 14:43:20;;;;;;;2.13;1.43;;;22.90;99.90;;;;;;4898912;29;20419;-71
2022/05/13 14:45:47;;;;;;;2.40;1.00;;;23.00;99.90;;;;;;4898511;29;20426;-71
2022/05/13 14:48:24;;;;;;;7.13;1.83;;;23.00;99.90;;;;;;4898816;29;20462;-71
2022/05/13 14:51:18;;;;;;;2.97;1.27;;;23.00;99.90;;;;;;4898245;29;20835;-71
2022/05/13 14:53:56;;;;;;;1.40;1.30;;;22.60;99.90;;;;;;4894535;29;20434;-71
2022/05/13 14:56:23;;;;;;;6.93;1.40;;;22.60;99.90;;;;;;4898448;29;20422;-72
2022/05/13 14:59:17;;;;;;;1.33;1.23;;;22.60;99.90;;;;;;4895605;29;20448;-72
2022/05/13 15:01:44;;;;;;;6.17;1.40;;;22.60;99.90;;;;;;4896610;29;20451;-72
2022/05/13 15:04:30;;;;;;;1.97;1.77;;;22.50;99.90;;;;;;4898076;29;20427;-70
2022/05/13 15:06:56;;;;;;;2.40;1.23;;;22.50;99.90;;;;;;4881658;29;20444;-72
2022/05/13 15:09:28;;;;;;;4.10;2.03;;;22.50;99.90;;;;;;4896398;29;20443;-71
2022/05/13 15:12:02;;;;;;;2.37;1.20;;;22.50;99.90;;;;;;4896850;29;20222;-70